Time;durP1;ratioP1;P1;durP2;ratioP2;P2;SDS_P1;SDS_P2;PMS_P1;PMS_P2;Temp;Humidity;BMP_temperature;BMP_pressure;BME280_temperature;BME280_humidity;BME280_pressure;Samples;Min_cycle;Max_cycle;Signal;HPM_P1;HPM_P2
2022/01/18 00:00:15;;;;;;;54.80;8.02;;;;;;;;;;5038407;28;20053;-73
2022/01/18 00:02:41;;;;;;;59.10;9.37;;;;;;;;;;5057750;28;20049;-73
2022/01/18 00:05:13;;;;;;;55.53;8.40;;;;;;;;;;5038159;28;20152;-73
2022/01/18 00:07:39;;;;;;;64.30;8.97;;;;;;;;;;5039677;28;20483;-73
2022/01/18 00:10:05;;;;;;;49.50;8.50;;;;;;;;;;5038887;28;20792;-73
2022/01/18 00:17:52;;;;;;;65.00;8.83;;;;;;;;;;5052980;28;20045;-73
2022/01/18 00:20:25;;;;;;;66.43;10.37;;;;;;;;;;5040215;28;20518;-73
2022/01/18 00:22:51;;;;;;;57.83;8.80;;;;;;;;;;5039089;28;20071;-72
2022/01/18 00:25:18;;;;;;;46.87;9.87;;;;;;;;;;5039245;28;20040;-72
2022/01/18 00:27:44;;;;;;;60.47;9.70;;;;;;;;;;5038278;28;20115;-72
2022/01/18 00:35:21;;;;;;;55.90;8.43;;;;;;;;;;5039116;28;20055;-73
2022/01/18 00:37:53;;;;;;;55.17;8.50;;;;;;;;;;5037167;28;20049;-73
2022/01/18 00:40:19;;;;;;;61.97;9.47;;;;;;;;;;5038516;28;20084;-73
2022/01/18 00:42:45;;;;;;;55.63;9.17;;;;;;;;;;5042096;28;20411;-73
2022/01/18 00:45:11;;;;;;;53.77;9.23;;;;;;;;;;5035659;28;20053;-73
2022/01/18 00:47:37;;;;;;;48.93;8.07;;;;;;;;;;5043600;28;20048;-73
2022/01/18 00:50:04;;;;;;;69.80;8.97;;;;;;;;;;5043606;28;20041;-73
2022/01/18 00:52:34;;;;;;;56.70;10.43;;;;;;;;;;5026575;28;20037;-73
2022/01/18 00:55:01;;;;;;;55.23;9.40;;;;;;;;;;5022715;28;20071;-73
2022/01/18 00:57:27;;;;;;;49.70;9.53;;;;;;;;;;5039737;28;20045;-72
2022/01/18 00:59:54;;;;;;;61.43;9.20;;;;;;;;;;5041132;28;20041;-73
2022/01/18 01:02:20;;;;;;;54.57;9.97;;;;;;;;;;5044428;28;20491;-72
2022/01/18 01:04:48;;;;;;;59.50;11.30;;;;;;;;;;5043369;28;20047;-72
2022/01/18 01:07:15;;;;;;;53.77;10.90;;;;;;;;;;5035725;28;20045;-72
2022/01/18 01:09:42;;;;;;;51.37;9.07;;;;;;;;;;5036032;28;20458;-72
2022/01/18 01:12:09;;;;;;;53.33;9.47;;;;;;;;;;5033421;28;20076;-72
2022/01/18 01:14:35;;;;;;;54.33;9.97;;;;;;;;;;5040893;28;20565;-72
2022/01/18 01:17:17;;;;;;;63.60;8.70;;;;;;;;;;5039021;28;20549;-72
2022/01/18 01:32:12;;;;;;;62.27;9.83;;;;;;;;;;5036063;28;20566;-72
2022/01/18 01:34:08;;;;;;;41.67;8.77;;;;;;;;;;5027814;28;20053;-72
2022/01/18 01:36:41;;;;;;;51.33;9.20;;;;;;;;;;5029351;28;20528;-72
2022/01/18 01:44:39;;;;;;;65.37;10.23;;;;;;;;;;5028162;28;20552;-72
2022/01/18 01:47:05;;;;;;;50.23;9.43;;;;;;;;;;5020537;28;20049;-72
2022/01/18 01:49:31;;;;;;;56.07;8.93;;;;;;;;;;5029542;28;20041;-73
2022/01/18 01:51:57;;;;;;;49.63;10.67;;;;;;;;;;5027394;28;20134;-72
2022/01/18 01:54:23;;;;;;;58.43;10.03;;;;;;;;;;5028969;28;20115;-72
2022/01/18 01:56:49;;;;;;;52.60;11.23;;;;;;;;;;5027704;28;20063;-72
2022/01/18 01:59:15;;;;;;;64.57;11.53;;;;;;;;;;5028048;28;20045;-73
2022/01/18 02:01:46;;;;;;;58.00;10.07;;;;;;;;;;5003340;28;20072;-73
2022/01/18 02:04:12;;;;;;;60.03;10.17;;;;;;;;;;5026461;28;20048;-73
2022/01/18 02:06:38;;;;;;;56.17;9.80;;;;;;;;;;5027688;28;20474;-73
2022/01/18 02:09:04;;;;;;;52.73;10.13;;;;;;;;;;5027220;28;20049;-73
2022/01/18 02:11:31;;;;;;;49.10;9.07;;;;;;;;;;5021635;28;20096;-72
2022/01/18 02:13:57;;;;;;;62.33;9.03;;;;;;;;;;5024406;28;20045;-73
2022/01/18 02:21:53;;;;;;;44.03;8.13;;;;;;;;;;5028794;28;20049;-73
2022/01/18 02:24:20;;;;;;;42.27;9.17;;;;;;;;;;5027837;28;20049;-72
2022/01/18 02:26:46;;;;;;;44.33;9.40;;;;;;;;;;5027343;28;20407;-73
2022/01/18 02:29:12;;;;;;;42.77;9.03;;;;;;;;;;5027576;28;20439;-72
2022/01/18 02:31:39;;;;;;;56.17;9.90;;;;;;;;;;5026862;28;20110;-72
2022/01/18 02:34:07;;;;;;;59.10;9.87;;;;;;;;;;5027335;28;20042;-72
2022/01/18 02:36:33;;;;;;;51.87;9.07;;;;;;;;;;5026291;28;20042;-72
2022/01/18 02:38:59;;;;;;;56.83;8.60;;;;;;;;;;5027088;28;20171;-72
2022/01/18 02:41:30;;;;;;;46.57;8.40;;;;;;;;;;5028569;28;20049;-73
2022/01/18 02:43:59;;;;;;;51.70;10.07;;;;;;;;;;5026971;28;20107;-72
2022/01/18 02:46:25;;;;;;;44.47;8.33;;;;;;;;;;5027451;28;20107;-73
2022/01/18 02:48:51;;;;;;;61.77;9.07;;;;;;;;;;5026668;28;20049;-73
2022/01/18 02:51:17;;;;;;;46.47;10.20;;;;;;;;;;5026879;28;20122;-73
2022/01/18 02:54:00;;;;;;;46.73;8.33;;;;;;;;;;5027068;28;20415;-72
2022/01/18 02:56:35;;;;;;;48.35;8.52;;;;;;;;;;5027211;28;20057;-72
2022/01/18 02:59:24;;;;;;;52.27;8.87;;;;;;;;;;5028156;28;20041;-73
2022/01/18 03:04:37;;;;;;;40.17;9.10;;;;;;;;;;5023304;28;20499;-73
2022/01/18 03:07:04;;;;;;;38.83;7.80;;;;;;;;;;5017756;28;20050;-72
2022/01/18 03:09:30;;;;;;;43.87;8.97;;;;;;;;;;5026977;28;20049;-72
2022/01/18 03:11:56;;;;;;;47.07;9.07;;;;;;;;;;5026318;28;20073;-73
2022/01/18 03:14:22;;;;;;;43.60;8.13;;;;;;;;;;5027193;28;20523;-73
2022/01/18 03:16:48;;;;;;;33.27;7.73;;;;;;;;;;5027446;28;20053;-73
2022/01/18 03:19:14;;;;;;;38.20;8.73;;;;;;;;;;5027899;28;20045;-73
2022/01/18 03:21:41;;;;;;;36.57;8.30;;;;;;;;;;5027927;28;20132;-72
2022/01/18 03:24:20;;;;;;;45.67;8.87;;;;;;;;;;5030360;28;20080;-72
2022/01/18 03:29:32;;;;;;;45.57;7.57;;;;;;;;;;5031008;28;20495;-73
2022/01/18 03:31:58;;;;;;;33.97;6.90;;;;;;;;;;5030867;28;20042;-73
2022/01/18 03:34:24;;;;;;;36.80;8.30;;;;;;;;;;5030338;28;20642;-73
2022/01/18 03:36:50;;;;;;;42.20;7.63;;;;;;;;;;5026919;28;20049;-73
2022/01/18 03:39:16;;;;;;;39.13;7.13;;;;;;;;;;5026668;28;20155;-73
2022/01/18 03:41:42;;;;;;;39.70;8.47;;;;;;;;;;5027506;28;20431;-73
2022/01/18 03:44:08;;;;;;;33.70;7.87;;;;;;;;;;5024593;28;20092;-73
2022/01/18 03:46:36;;;;;;;39.00;8.03;;;;;;;;;;5030048;28;20515;-73
2022/01/18 03:49:05;;;;;;;27.07;7.30;;;;;;;;;;5029580;28;20049;-74
2022/01/18 03:51:31;;;;;;;51.03;9.77;;;;;;;;;;5031463;28;20103;-73
2022/01/18 03:53:57;;;;;;;47.70;8.73;;;;;;;;;;5031170;28;20034;-72
2022/01/18 03:56:23;;;;;;;53.83;10.17;;;;;;;;;;5030293;28;20061;-72
2022/01/18 03:58:49;;;;;;;54.70;9.43;;;;;;;;;;5031120;28;20120;-73
2022/01/18 04:01:15;;;;;;;50.27;8.57;;;;;;;;;;5030522;28;20132;-73
2022/01/18 04:03:41;;;;;;;52.90;9.73;;;;;;;;;;5030230;28;20507;-73
2022/01/18 04:06:07;;;;;;;48.37;9.10;;;;;;;;;;5031153;28;20075;-73
2022/01/18 04:08:33;;;;;;;42.37;8.73;;;;;;;;;;5024981;28;20041;-73
2022/01/18 04:10:59;;;;;;;41.30;8.80;;;;;;;;;;5028897;28;20491;-72
2022/01/18 04:13:25;;;;;;;39.20;9.30;;;;;;;;;;5029879;28;20038;-72
2022/01/18 04:15:51;;;;;;;39.70;9.67;;;;;;;;;;5021570;28;20058;-72
2022/01/18 04:28:55;;;;;;;38.30;7.73;;;;;;;;;;5030528;28;20054;-72
2022/01/18 04:31:22;;;;;;;41.93;8.80;;;;;;;;;;5029664;28;20118;-72
2022/01/18 04:33:48;;;;;;;44.67;7.77;;;;;;;;;;5019630;28;20079;-72
2022/01/18 04:36:14;;;;;;;54.97;10.03;;;;;;;;;;5029776;28;20053;-72
2022/01/18 04:38:40;;;;;;;49.67;9.27;;;;;;;;;;5028570;28;20033;-73
2022/01/18 04:41:11;;;;;;;49.77;9.27;;;;;;;;;;5029079;28;20531;-73
2022/01/18 04:49:01;;;;;;;68.07;12.13;;;;;;;;;;5030152;28;20056;-73
2022/01/18 04:51:27;;;;;;;52.40;12.40;;;;;;;;;;5028679;28;20141;-73
2022/01/18 04:53:56;;;;;;;55.43;10.37;;;;;;;;;;5028730;28;20479;-72
2022/01/18 04:59:01;;;;;;;42.83;8.90;;;;;;;;;;5027665;28;20132;-73
2022/01/18 05:01:27;;;;;;;42.07;9.30;;;;;;;;;;5028720;28;20402;-73
2022/01/18 05:03:53;;;;;;;34.90;8.57;;;;;;;;;;5028486;28;20535;-72
2022/01/18 05:06:20;;;;;;;49.73;9.57;;;;;;;;;;5028316;28;20084;-72
2022/01/18 05:08:46;;;;;;;39.40;9.57;;;;;;;;;;5020547;28;20053;-73
2022/01/18 05:11:15;;;;;;;37.53;9.57;;;;;;;;;;5028811;28;20054;-72
2022/01/18 05:19:28;;;;;;;42.67;10.10;;;;;;;;;;5020934;28;20053;-73
2022/01/18 05:24:24;;;;;;;30.50;8.67;;;;;;;;;;5027998;28;20136;-73
2022/01/18 05:26:51;;;;;;;39.40;11.07;;;;;;;;;;5028216;28;20575;-72
2022/01/18 05:29:17;;;;;;;45.80;11.33;;;;;;;;;;5028190;28;20045;-72
2022/01/18 05:31:43;;;;;;;60.00;12.47;;;;;;;;;;5029169;28;20057;-72
2022/01/18 05:34:09;;;;;;;45.30;10.23;;;;;;;;;;5028910;28;20067;-73
2022/01/18 05:36:35;;;;;;;46.63;10.77;;;;;;;;;;5011716;28;20415;-72
2022/01/18 05:39:01;;;;;;;44.90;10.70;;;;;;;;;;5027816;28;20041;-73
2022/01/18 05:41:27;;;;;;;48.73;11.53;;;;;;;;;;5027708;28;20049;-72
2022/01/18 05:43:53;;;;;;;34.70;10.37;;;;;;;;;;5027790;28;20037;-73
2022/01/18 05:46:20;;;;;;;41.70;10.47;;;;;;;;;;5027555;28;20099;-73
2022/01/18 05:48:46;;;;;;;36.43;10.00;;;;;;;;;;5029129;28;20041;-73
2022/01/18 05:51:12;;;;;;;33.33;10.77;;;;;;;;;;5028871;28;20044;-73
2022/01/18 05:53:39;;;;;;;40.40;9.07;;;;;;;;;;5025020;28;20103;-72
2022/01/18 05:56:12;;;;;;;38.97;9.87;;;;;;;;;;5026997;28;20500;-73
2022/01/18 05:58:44;;;;;;;41.55;9.73;;;;;;;;;;5027685;28;20071;-73
2022/01/18 06:01:10;;;;;;;25.87;9.17;;;;;;;;;;5027693;28;20071;-73
2022/01/18 06:03:51;;;;;;;30.00;9.07;;;;;;;;;;5028932;28;20046;-73
2022/01/18 06:09:01;;;;;;;37.20;9.13;;;;;;;;;;5027235;28;20824;-73
2022/01/18 06:11:27;;;;;;;32.17;8.43;;;;;;;;;;5027975;28;20049;-72
2022/01/18 06:13:53;;;;;;;27.63;7.70;;;;;;;;;;5026533;28;20500;-72
2022/01/18 06:16:19;;;;;;;27.97;7.73;;;;;;;;;;5027412;28;20099;-72
2022/01/18 06:18:45;;;;;;;25.07;7.23;;;;;;;;;;5026882;28;20059;-73
2022/01/18 06:21:11;;;;;;;30.27;7.47;;;;;;;;;;5028673;28;20061;-72
2022/01/18 06:23:37;;;;;;;24.53;7.50;;;;;;;;;;5028504;28;20140;-72
2022/01/18 06:26:04;;;;;;;28.60;9.13;;;;;;;;;;5028238;28;20133;-72
2022/01/18 06:28:32;;;;;;;31.23;8.03;;;;;;;;;;5019894;28;20088;-72
2022/01/18 06:30:58;;;;;;;36.50;8.53;;;;;;;;;;5022859;28;20041;-72
2022/01/18 06:33:24;;;;;;;35.23;9.00;;;;;;;;;;5044110;28;20469;-72
2022/01/18 06:35:50;;;;;;;38.37;8.87;;;;;;;;;;5028986;28;20646;-72
2022/01/18 06:38:16;;;;;;;33.30;9.00;;;;;;;;;;5028662;28;20049;-73
2022/01/18 06:40:42;;;;;;;36.47;9.07;;;;;;;;;;5044102;28;20754;-73
2022/01/18 06:43:08;;;;;;;41.07;11.17;;;;;;;;;;5044285;28;20046;-73
2022/01/18 06:45:34;;;;;;;45.00;11.13;;;;;;;;;;5027518;28;20535;-73
2022/01/18 06:48:00;;;;;;;36.63;9.73;;;;;;;;;;5028492;28;20458;-73
2022/01/18 06:50:26;;;;;;;48.50;10.17;;;;;;;;;;5014564;28;20050;-73
2022/01/18 06:52:52;;;;;;;40.80;10.10;;;;;;;;;;5015236;28;20664;-73
2022/01/18 06:55:18;;;;;;;51.87;10.70;;;;;;;;;;5026434;28;20045;-73
2022/01/18 06:57:44;;;;;;;53.47;11.17;;;;;;;;;;5030033;28;20045;-73
2022/01/18 07:00:10;;;;;;;42.87;10.57;;;;;;;;;;5015332;28;20068;-73
2022/01/18 07:02:36;;;;;;;45.27;10.63;;;;;;;;;;5031212;28;20140;-72
2022/01/18 07:05:02;;;;;;;44.10;10.17;;;;;;;;;;5032459;28;20056;-72
2022/01/18 07:07:28;;;;;;;36.93;10.30;;;;;;;;;;5031345;28;20443;-73
2022/01/18 07:09:54;;;;;;;43.90;9.37;;;;;;;;;;5031554;28;20075;-73
2022/01/18 07:12:22;;;;;;;33.37;9.67;;;;;;;;;;5028780;28;20049;-73
2022/01/18 07:14:48;;;;;;;41.07;11.20;;;;;;;;;;5035839;28;20511;-73
2022/01/18 07:17:14;;;;;;;39.77;9.13;;;;;;;;;;5036891;28;20050;-73
2022/01/18 07:19:40;;;;;;;45.77;9.73;;;;;;;;;;5038988;28;20076;-73
2022/01/18 07:22:06;;;;;;;39.43;9.47;;;;;;;;;;5034656;28;20748;-73
2022/01/18 07:24:46;;;;;;;39.13;10.33;;;;;;;;;;5028056;28;20037;-72
2022/01/18 07:27:13;;;;;;;38.97;9.53;;;;;;;;;;5024726;28;20136;-72
2022/01/18 07:29:41;;;;;;;41.90;10.57;;;;;;;;;;5043622;28;20583;-72
2022/01/18 07:32:07;;;;;;;46.53;10.27;;;;;;;;;;5031810;28;20571;-72
2022/01/18 07:34:36;;;;;;;37.30;9.60;;;;;;;;;;5030971;28;20055;-73
2022/01/18 07:37:03;;;;;;;35.53;9.37;;;;;;;;;;5038973;28;20045;-73
2022/01/18 07:39:29;;;;;;;36.37;9.70;;;;;;;;;;5037254;28;20059;-73
2022/01/18 07:41:55;;;;;;;34.40;9.80;;;;;;;;;;5035177;28;20167;-73
2022/01/18 07:44:21;;;;;;;36.77;9.00;;;;;;;;;;5023809;28;20497;-73
2022/01/18 07:46:47;;;;;;;56.87;11.43;;;;;;;;;;5023646;28;20052;-73
2022/01/18 07:49:13;;;;;;;44.07;12.10;;;;;;;;;;5028412;28;20350;-74
2022/01/18 07:51:39;;;;;;;34.33;10.23;;;;;;;;;;5025616;28;20407;-74
2022/01/18 07:54:05;;;;;;;47.20;11.93;;;;;;;;;;5012057;28;20045;-73
2022/01/18 07:56:31;;;;;;;39.93;11.47;;;;;;;;;;5029658;28;20049;-73
2022/01/18 07:58:57;;;;;;;49.10;12.07;;;;;;;;;;5040118;28;20052;-73
2022/01/18 08:01:23;;;;;;;41.77;11.37;;;;;;;;;;5024032;28;20494;-73
2022/01/18 08:03:49;;;;;;;47.57;12.33;;;;;;;;;;5024126;28;20143;-72
2022/01/18 08:06:15;;;;;;;46.83;12.47;;;;;;;;;;5031485;28;20073;-73
2022/01/18 08:08:41;;;;;;;41.80;11.80;;;;;;;;;;5009282;28;20585;-72
2022/01/18 08:11:07;;;;;;;45.70;11.17;;;;;;;;;;5025989;28;20045;-73
2022/01/18 08:13:41;;;;;;;46.80;12.10;;;;;;;;;;5025026;28;20045;-73
2022/01/18 08:18:53;;;;;;;51.10;12.40;;;;;;;;;;5029454;28;20551;-72
2022/01/18 08:21:20;;;;;;;53.50;12.83;;;;;;;;;;5029759;28;20057;-72
2022/01/18 08:23:46;;;;;;;54.47;12.93;;;;;;;;;;5027568;28;20084;-73
2022/01/18 08:26:12;;;;;;;54.73;14.93;;;;;;;;;;5027842;28;20579;-74
2022/01/18 08:28:39;;;;;;;53.20;12.77;;;;;;;;;;5029424;28;20049;-73
2022/01/18 08:31:05;;;;;;;59.90;12.87;;;;;;;;;;5022459;28;20458;-73
2022/01/18 08:33:32;;;;;;;44.87;13.40;;;;;;;;;;5022250;28;20056;-73
2022/01/18 08:36:03;;;;;;;56.93;14.30;;;;;;;;;;5020173;28;20049;-73
2022/01/18 08:38:30;;;;;;;55.70;15.17;;;;;;;;;;5023574;28;20049;-73
2022/01/18 08:40:58;;;;;;;51.73;14.07;;;;;;;;;;5025007;28;20042;-73
2022/01/18 08:43:24;;;;;;;57.53;14.07;;;;;;;;;;5024154;28;20092;-72
2022/01/18 08:45:50;;;;;;;51.03;13.37;;;;;;;;;;5024680;28;20103;-73
2022/01/18 08:48:16;;;;;;;52.10;14.83;;;;;;;;;;5024058;28;20029;-72
2022/01/18 08:50:42;;;;;;;56.10;15.40;;;;;;;;;;5040632;28;20037;-73
2022/01/18 08:53:09;;;;;;;47.70;15.60;;;;;;;;;;5028279;28;20083;-73
2022/01/18 08:55:35;;;;;;;59.83;15.83;;;;;;;;;;5027101;28;20056;-72
2022/01/18 08:58:01;;;;;;;46.30;15.57;;;;;;;;;;5023326;28;20045;-72
2022/01/18 09:00:27;;;;;;;47.93;15.23;;;;;;;;;;5035189;28;20049;-73
2022/01/18 09:02:53;;;;;;;59.10;16.97;;;;;;;;;;5022845;28;20041;-73
2022/01/18 09:05:22;;;;;;;53.10;15.27;;;;;;;;;;5037052;28;20045;-73
2022/01/18 09:07:48;;;;;;;44.87;14.90;;;;;;;;;;5023610;28;20610;-73
2022/01/18 09:10:15;;;;;;;51.57;14.93;;;;;;;;;;5038827;28;20052;-73
2022/01/18 09:12:41;;;;;;;58.27;15.60;;;;;;;;;;5032137;28;20053;-72
2022/01/18 09:15:08;;;;;;;44.47;13.13;;;;;;;;;;5031771;28;20492;-80
2022/01/18 09:17:35;;;;;;;39.50;13.03;;;;;;;;;;5025875;28;20052;-80
2022/01/18 09:20:06;;;;;;;34.97;12.00;;;;;;;;;;5041874;28;20147;-79
2022/01/18 09:22:34;;;;;;;35.40;11.17;;;;;;;;;;5024719;28;20053;-79
2022/01/18 09:25:01;;;;;;;35.33;11.90;;;;;;;;;;5012695;28;20163;-79
2022/01/18 09:27:27;;;;;;;36.17;11.80;;;;;;;;;;5039151;28;20053;-79
2022/01/18 09:29:53;;;;;;;37.40;13.93;;;;;;;;;;5027228;28;20049;-79
2022/01/18 09:32:19;;;;;;;37.90;12.80;;;;;;;;;;5031172;28;20087;-79
2022/01/18 09:34:45;;;;;;;39.30;11.67;;;;;;;;;;5028583;28;20116;-79
2022/01/18 09:37:11;;;;;;;32.90;12.60;;;;;;;;;;5038550;28;20179;-80
2022/01/18 09:39:38;;;;;;;23.50;10.50;;;;;;;;;;5037389;28;20499;-80
2022/01/18 09:42:05;;;;;;;29.53;9.00;;;;;;;;;;5033816;28;20180;-79
2022/01/18 09:44:31;;;;;;;27.73;8.60;;;;;;;;;;5038711;28;20065;-80
2022/01/18 09:46:57;;;;;;;25.03;8.37;;;;;;;;;;5021633;28;20049;-79
2022/01/18 09:49:24;;;;;;;20.30;7.03;;;;;;;;;;5035521;28;20090;-79
2022/01/18 09:51:51;;;;;;;13.20;7.20;;;;;;;;;;5045470;28;20041;-79
2022/01/18 09:54:17;;;;;;;19.63;7.90;;;;;;;;;;5035488;28;20119;-78
2022/01/18 09:56:44;;;;;;;16.93;6.73;;;;;;;;;;5034210;28;20049;-79
2022/01/18 09:59:10;;;;;;;20.73;6.47;;;;;;;;;;5030236;28;20049;-79
2022/01/18 10:01:36;;;;;;;21.10;7.00;;;;;;;;;;5044105;28;20045;-79
2022/01/18 10:04:19;;;;;;;18.63;7.17;;;;;;;;;;5031485;28;20435;-79
2022/01/18 10:06:47;;;;;;;18.75;7.70;;;;;;;;;;5033808;28;20047;-78
2022/01/18 10:09:13;;;;;;;24.27;8.80;;;;;;;;;;5033366;28;20125;-79
2022/01/18 10:11:58;;;;;;;15.70;6.57;;;;;;;;;;5033009;28;20419;-78
2022/01/18 10:14:24;;;;;;;14.87;5.47;;;;;;;;;;5032454;28;20080;-78
2022/01/18 10:16:50;;;;;;;16.63;6.70;;;;;;;;;;5034125;28;20586;-78
2022/01/18 10:19:29;;;;;;;18.63;6.37;;;;;;;;;;5030823;28;20057;-78
2022/01/18 10:22:06;;;;;;;19.43;5.73;;;;;;;;;;5027165;28;20052;-79
2022/01/18 10:24:32;;;;;;;17.47;6.10;;;;;;;;;;5026989;28;20120;-78
2022/01/18 10:26:58;;;;;;;16.00;5.90;;;;;;;;;;5026545;28;20467;-79
2022/01/18 10:29:36;;;;;;;17.10;4.70;;;;;;;;;;5034633;28;20095;-78
2022/01/18 10:32:17;;;;;;;14.67;5.23;;;;;;;;;;5025862;28;20049;-79
2022/01/18 10:37:18;;;;;;;11.40;4.80;;;;;;;;;;5027109;28;20526;-80
2022/01/18 10:39:55;;;;;;;13.47;4.63;;;;;;;;;;5026926;28;20416;-79
2022/01/18 10:42:25;;;;;;;15.00;3.93;;;;;;;;;;5030791;28;20038;-73
2022/01/18 10:45:07;;;;;;;13.60;5.03;;;;;;;;;;5024269;28;20512;-73
2022/01/18 10:47:34;;;;;;;14.90;4.77;;;;;;;;;;5026221;28;20057;-74
2022/01/18 10:50:09;;;;;;;11.43;4.37;;;;;;;;;;5028555;28;20045;-71
2022/01/18 10:52:35;;;;;;;10.53;4.10;;;;;;;;;;5028937;28;20049;-71
2022/01/18 10:55:02;;;;;;;11.37;3.13;;;;;;;;;;5028214;28;20076;-71
2022/01/18 10:57:29;;;;;;;8.63;3.23;;;;;;;;;;5027772;28;20052;-71
2022/01/18 10:59:56;;;;;;;12.63;3.90;;;;;;;;;;5028878;28;20499;-71
2022/01/18 11:02:22;;;;;;;14.00;3.30;;;;;;;;;;5028956;28;20049;-71
2022/01/18 11:04:49;;;;;;;11.20;2.70;;;;;;;;;;5023523;28;20046;-71
2022/01/18 11:07:17;;;;;;;5.73;2.57;;;;;;;;;;5039853;28;20037;-71
2022/01/18 11:09:43;;;;;;;10.70;2.67;;;;;;;;;;5027324;28;20046;-71
2022/01/18 11:12:10;;;;;;;12.27;2.47;;;;;;;;;;5026825;28;20095;-72
2022/01/18 11:14:38;;;;;;;8.03;2.20;;;;;;;;;;5028670;28;20120;-71
2022/01/18 11:17:06;;;;;;;10.17;2.27;;;;;;;;;;5034262;28;20329;-71
2022/01/18 11:19:35;;;;;;;7.57;2.20;;;;;;;;;;5031732;28;20065;-72
2022/01/18 11:22:04;;;;;;;10.70;2.17;;;;;;;;;;5028276;28;20176;-71
2022/01/18 11:24:31;;;;;;;12.00;3.33;;;;;;;;;;5030319;28;20492;-71
2022/01/18 11:26:59;;;;;;;12.50;2.90;;;;;;;;;;5028587;28;20571;-71
2022/01/18 11:29:26;;;;;;;11.40;2.27;;;;;;;;;;5039852;28;20049;-71
2022/01/18 11:31:53;;;;;;;7.93;2.30;;;;;;;;;;5036327;28;20107;-71
2022/01/18 11:34:25;;;;;;;10.73;2.20;;;;;;;;;;5026014;28;20076;-71
2022/01/18 11:36:57;;;;;;;10.90;2.90;;;;;;;;;;5026065;28;20049;-71
2022/01/18 11:39:28;;;;;;;8.83;2.20;;;;;;;;;;5010306;28;20120;-71
2022/01/18 11:42:05;;;;;;;9.40;3.30;;;;;;;;;;5026741;28;20046;-71
2022/01/18 11:44:31;;;;;;;11.77;3.13;;;;;;;;;;5013695;28;20083;-71
2022/01/18 11:46:58;;;;;;;10.27;3.13;;;;;;;;;;5029949;28;20528;-71
2022/01/18 11:49:27;;;;;;;10.37;3.47;;;;;;;;;;5029417;28;20056;-71
2022/01/18 11:51:55;;;;;;;9.93;3.37;;;;;;;;;;5030059;28;20102;-71
2022/01/18 11:54:33;;;;;;;8.90;3.13;;;;;;;;;;5031144;28;20121;-71
2022/01/18 11:57:00;;;;;;;10.13;2.50;;;;;;;;;;5030663;28;20509;-71
2022/01/18 11:59:37;;;;;;;10.23;2.83;;;;;;;;;;5031315;28;20500;-71
2022/01/18 12:02:04;;;;;;;9.10;2.60;;;;;;;;;;5031475;28;20345;-71
2022/01/18 12:07:11;;;;;;;9.40;3.00;;;;;;;;;;5010032;28;20389;-71
2022/01/18 12:09:40;;;;;;;7.73;2.43;;;;;;;;;;5011531;28;20046;-71
2022/01/18 12:12:26;;;;;;;11.03;2.90;;;;;;;;;;5010063;28;20069;-71
2022/01/18 12:14:52;;;;;;;11.27;3.20;;;;;;;;;;5010926;28;20521;-71
2022/01/18 12:17:18;;;;;;;10.77;4.13;;;;;;;;;;5011125;28;20057;-71
2022/01/18 12:19:46;;;;;;;15.30;5.07;;;;;;;;;;5010828;28;20062;-71
2022/01/18 12:22:12;;;;;;;14.17;5.53;;;;;;;;;;5009348;28;20408;-71
2022/01/18 12:24:44;;;;;;;12.23;5.83;;;;;;;;;;5011128;28;20050;-70
2022/01/18 12:27:42;;;;;;;15.50;5.20;;;;;;;;;;5009264;28;20649;-71
2022/01/18 12:30:36;;;;;;;13.33;5.03;;;;;;;;;;5009149;28;20061;-70
2022/01/18 12:33:17;;;;;;;11.98;5.53;;;;;;;;;;5010564;28;20459;-70
2022/01/18 12:35:43;;;;;;;18.00;5.87;;;;;;;;;;5010186;28;20044;-70
2022/01/18 12:38:12;;;;;;;14.13;5.50;;;;;;;;;;5009450;28;20053;-70
2022/01/18 12:40:43;;;;;;;22.97;9.17;;;;;;;;;;5010348;28;20053;-70
2022/01/18 12:45:39;;;;;;;19.83;6.70;;;;;;;;;;5009076;28;20125;-72
2022/01/18 12:48:07;;;;;;;17.33;5.97;;;;;;;;;;5010444;28;20046;-71
2022/01/18 12:50:44;;;;;;;19.00;6.47;;;;;;;;;;5021994;28;20057;-71
2022/01/18 12:53:11;;;;;;;15.50;5.53;;;;;;;;;;5028080;28;20077;-71
2022/01/18 12:55:46;;;;;;;23.17;6.63;;;;;;;;;;5027905;28;20107;-71
2022/01/18 12:58:15;;;;;;;14.43;6.20;;;;;;;;;;5028788;28;20060;-71
2022/01/18 13:00:43;;;;;;;13.70;5.97;;;;;;;;;;5027480;28;20554;-71
2022/01/18 13:03:09;;;;;;;15.20;5.27;;;;;;;;;;5028888;28;20046;-72
2022/01/18 13:05:37;;;;;;;18.33;6.73;;;;;;;;;;5028796;28;20052;-71
2022/01/18 13:08:03;;;;;;;14.17;5.60;;;;;;;;;;5029962;28;20056;-71
2022/01/18 13:10:35;;;;;;;17.10;5.67;;;;;;;;;;5028070;28;20061;-71
2022/01/18 13:13:02;;;;;;;14.07;5.13;;;;;;;;;;5026346;28;20056;-71
2022/01/18 13:15:50;;;;;;;15.90;4.90;;;;;;;;;;5029406;28;20084;-71
2022/01/18 13:23:55;;;;;;;14.50;6.00;;;;;;;;;;5008714;28;21048;-71
2022/01/18 13:26:29;;;;;;;19.00;5.70;;;;;;;;;;5009824;28;20061;-71
2022/01/18 13:28:56;;;;;;;17.83;5.30;;;;;;;;;;5010169;28;20072;-71
2022/01/18 13:31:24;;;;;;;12.60;5.93;;;;;;;;;;5010633;28;20049;-71
2022/01/18 13:33:56;;;;;;;13.17;5.73;;;;;;;;;;5028218;28;20061;-71
2022/01/18 13:36:22;;;;;;;18.77;6.13;;;;;;;;;;5028235;28;20057;-71
2022/01/18 13:38:49;;;;;;;21.13;5.87;;;;;;;;;;5029357;28;20042;-71
2022/01/18 13:41:16;;;;;;;15.13;7.03;;;;;;;;;;5028164;28;20053;-71
2022/01/18 13:43:43;;;;;;;23.20;7.83;;;;;;;;;;5029342;28;20172;-71
2022/01/18 13:46:09;;;;;;;18.60;6.50;;;;;;;;;;5026219;28;20056;-71
2022/01/18 13:48:35;;;;;;;17.63;6.63;;;;;;;;;;5027493;28;20049;-71
2022/01/18 13:51:15;;;;;;;12.80;6.33;;;;;;;;;;5029524;28;20041;-71
2022/01/18 13:53:41;;;;;;;16.90;5.97;;;;;;;;;;5029296;28;20049;-71
2022/01/18 13:56:18;;;;;;;17.47;7.10;;;;;;;;;;5029313;28;20754;-71
2022/01/18 13:58:46;;;;;;;20.80;6.70;;;;;;;;;;5029229;28;20086;-71
2022/01/18 14:01:28;;;;;;;22.53;7.87;;;;;;;;;;5027500;28;20092;-71
2022/01/18 14:03:55;;;;;;;18.37;6.17;;;;;;;;;;5028067;28;20045;-71
2022/01/18 14:06:32;;;;;;;19.90;6.80;;;;;;;;;;5027994;28;20048;-70
2022/01/18 14:08:58;;;;;;;24.73;6.97;;;;;;;;;;5027646;28;20041;-71
2022/01/18 14:11:25;;;;;;;20.87;7.67;;;;;;;;;;5027376;28;20042;-70
2022/01/18 14:13:52;;;;;;;18.20;6.93;;;;;;;;;;5028660;28;20046;-71
2022/01/18 14:16:25;;;;;;;23.23;7.70;;;;;;;;;;5028071;28;20046;-71
2022/01/18 14:18:56;;;;;;;20.17;9.52;;;;;;;;;;5027452;28;20045;-71
2022/01/18 14:21:42;;;;;;;25.97;8.80;;;;;;;;;;5027311;28;20122;-71
2022/01/18 14:24:11;;;;;;;29.07;9.60;;;;;;;;;;5025126;28;20075;-70
2022/01/18 14:26:42;;;;;;;27.77;9.10;;;;;;;;;;5038608;28;20060;-71
2022/01/18 14:29:09;;;;;;;22.33;8.90;;;;;;;;;;5026612;28;20155;-70
2022/01/18 14:31:35;;;;;;;26.60;9.70;;;;;;;;;;5027329;28;20350;-71
2022/01/18 14:34:01;;;;;;;25.63;9.90;;;;;;;;;;5026744;28;20045;-71
2022/01/18 14:36:27;;;;;;;27.73;9.40;;;;;;;;;;5027749;28;20051;-70
2022/01/18 14:39:09;;;;;;;25.73;10.10;;;;;;;;;;5025680;28;20049;-70
2022/01/18 14:41:35;;;;;;;29.03;10.97;;;;;;;;;;5025278;28;20136;-71
2022/01/18 14:44:10;;;;;;;31.13;11.40;;;;;;;;;;5026645;28;20052;-70
2022/01/18 14:47:24;;;;;;;28.63;12.13;;;;;;;;;;5027488;28;20089;-70
2022/01/18 14:49:25;;;;;;;37.83;16.80;;;;;;;;;;5021300;28;20531;-70
2022/01/18 14:51:51;;;;;;;33.03;14.17;;;;;;;;;;5026480;28;20065;-70
2022/01/18 14:54:17;;;;;;;55.97;20.37;;;;;;;;;;5026516;28;20091;-70
2022/01/18 14:56:43;;;;;;;47.50;20.00;;;;;;;;;;5027896;28;20076;-70
2022/01/18 14:59:09;;;;;;;50.33;19.63;;;;;;;;;;5026200;28;20095;-70
2022/01/18 15:01:36;;;;;;;55.53;21.33;;;;;;;;;;5038517;28;20045;-71
2022/01/18 15:04:02;;;;;;;60.40;22.07;;;;;;;;;;5036969;28;20045;-71
2022/01/18 15:06:28;;;;;;;63.67;20.40;;;;;;;;;;5037117;28;20092;-71
2022/01/18 15:08:54;;;;;;;55.30;21.83;;;;;;;;;;5036839;28;20045;-71
2022/01/18 15:11:20;;;;;;;57.60;21.43;;;;;;;;;;5032790;28;20556;-71
2022/01/18 15:13:46;;;;;;;54.77;20.63;;;;;;;;;;5035862;28;20068;-70
2022/01/18 15:16:12;;;;;;;60.80;23.80;;;;;;;;;;5034281;28;20124;-71
2022/01/18 15:18:38;;;;;;;53.30;21.50;;;;;;;;;;5037770;28;20053;-71
2022/01/18 15:21:04;;;;;;;53.40;22.37;;;;;;;;;;5046023;28;20462;-71
2022/01/18 15:23:30;;;;;;;62.07;23.63;;;;;;;;;;5030427;28;20046;-71
2022/01/18 15:25:56;;;;;;;64.40;24.13;;;;;;;;;;5042984;28;20041;-71
2022/01/18 15:28:22;;;;;;;76.27;23.27;;;;;;;;;;5046697;28;20135;-71
2022/01/18 15:30:48;;;;;;;65.37;24.60;;;;;;;;;;5039868;28;20048;-71
2022/01/18 15:33:14;;;;;;;59.30;25.23;;;;;;;;;;5036717;28;20041;-71
2022/01/18 15:35:40;;;;;;;69.87;26.03;;;;;;;;;;5038472;28;20396;-71
2022/01/18 15:38:06;;;;;;;63.63;23.60;;;;;;;;;;5033213;28;20044;-71
2022/01/18 15:40:33;;;;;;;68.53;23.13;;;;;;;;;;5035563;28;20041;-71
2022/01/18 15:42:59;;;;;;;66.20;21.13;;;;;;;;;;5029984;28;20111;-71
2022/01/18 15:45:25;;;;;;;54.90;20.83;;;;;;;;;;5036592;28;20041;-71
2022/01/18 15:47:53;;;;;;;65.53;22.40;;;;;;;;;;5049133;28;20099;-71
2022/01/18 15:50:19;;;;;;;54.50;19.33;;;;;;;;;;5046926;28;20934;-71
2022/01/18 15:52:45;;;;;;;61.27;20.67;;;;;;;;;;5043513;28;20132;-71
2022/01/18 15:55:11;;;;;;;61.03;21.33;;;;;;;;;;5049540;28;20067;-71